sensor_id;sensor_type;location;lat;lon;timestamp;temperature;humidity
14604;DHT22;7388;51.078;13.740;2022-07-22T00:01:19;25.40;44.10
14604;DHT22;7388;51.078;13.740;2022-07-22T00:03:45;25.40;44.00
14604;DHT22;7388;51.078;13.740;2022-07-22T00:06:11;25.30;44.20
14604;DHT22;7388;51.078;13.740;2022-07-22T00:08:37;25.30;44.40
14604;DHT22;7388;51.078;13.740;2022-07-22T00:11:04;25.30;44.50
14604;DHT22;7388;51.078;13.740;2022-07-22T00:13:30;25.30;44.70
14604;DHT22;7388;51.078;13.740;2022-07-22T00:15:56;25.20;44.70
14604;DHT22;7388;51.078;13.740;2022-07-22T00:18:22;25.20;44.60
14604;DHT22;7388;51.078;13.740;2022-07-22T00:20:48;25.20;44.70
14604;DHT22;7388;51.078;13.740;2022-07-22T00:23:13;25.10;44.70
14604;DHT22;7388;51.078;13.740;2022-07-22T00:25:39;25.10;44.50
14604;DHT22;7388;51.078;13.740;2022-07-22T00:28:05;25.10;44.60
14604;DHT22;7388;51.078;13.740;2022-07-22T00:30:31;25.00;44.40
14604;DHT22;7388;51.078;13.740;2022-07-22T00:32:57;25.10;44.50
14604;DHT22;7388;51.078;13.740;2022-07-22T00:35:23;25.00;44.60
14604;DHT22;7388;51.078;13.740;2022-07-22T00:37:48;25.00;44.60
14604;DHT22;7388;51.078;13.740;2022-07-22T00:40:14;24.90;44.70
14604;DHT22;7388;51.078;13.740;2022-07-22T00:42:40;24.90;44.50
14604;DHT22;7388;51.078;13.740;2022-07-22T00:45:07;24.90;44.70
14604;DHT22;7388;51.078;13.740;2022-07-22T00:47:33;24.80;44.70
14604;DHT22;7388;51.078;13.740;2022-07-22T00:49:59;24.80;44.80
14604;DHT22;7388;51.078;13.740;2022-07-22T00:52:25;24.80;44.70
14604;DHT22;7388;51.078;13.740;2022-07-22T00:54:52;24.70;45.00
14604;DHT22;7388;51.078;13.740;2022-07-22T00:57:18;24.70;44.90
14604;DHT22;7388;51.078;13.740;2022-07-22T00:59:44;24.70;44.80
14604;DHT22;7388;51.078;13.740;2022-07-22T01:02:10;24.60;45.00
14604;DHT22;7388;51.078;13.740;2022-07-22T01:04:36;24.50;45.40
14604;DHT22;7388;51.078;13.740;2022-07-22T01:07:02;24.50;45.50
14604;DHT22;7388;51.078;13.740;2022-07-22T01:09:28;24.50;45.30
14604;DHT22;7388;51.078;13.740;2022-07-22T01:11:54;24.40;45.20
14604;DHT22;7388;51.078;13.740;2022-07-22T01:14:20;24.50;45.30
14604;DHT22;7388;51.078;13.740;2022-07-22T01:16:46;24.40;45.20
14604;DHT22;7388;51.078;13.740;2022-07-22T01:19:12;24.40;45.20
14604;DHT22;7388;51.078;13.740;2022-07-22T01:21:38;24.40;45.20
14604;DHT22;7388;51.078;13.740;2022-07-22T01:24:04;24.40;45.20
14604;DHT22;7388;51.078;13.740;2022-07-22T01:26:30;24.30;45.20
14604;DHT22;7388;51.078;13.740;2022-07-22T01:28:58;24.30;45.20
14604;DHT22;7388;51.078;13.740;2022-07-22T01:31:24;24.30;45.30
14604;DHT22;7388;51.078;13.740;2022-07-22T01:33:50;24.30;45.50
14604;DHT22;7388;51.078;13.740;2022-07-22T01:36:16;24.30;45.50
14604;DHT22;7388;51.078;13.740;2022-07-22T01:38:42;24.30;45.50
14604;DHT22;7388;51.078;13.740;2022-07-22T01:41:08;24.30;45.90
14604;DHT22;7388;51.078;13.740;2022-07-22T01:43:34;24.20;45.70
14604;DHT22;7388;51.078;13.740;2022-07-22T01:46:00;24.20;45.70
14604;DHT22;7388;51.078;13.740;2022-07-22T01:48:26;24.20;45.80
14604;DHT22;7388;51.078;13.740;2022-07-22T01:50:52;24.20;45.70
14604;DHT22;7388;51.078;13.740;2022-07-22T01:53:18;24.20;45.80
14604;DHT22;7388;51.078;13.740;2022-07-22T01:55:44;24.10;45.70
14604;DHT22;7388;51.078;13.740;2022-07-22T01:58:10;24.10;45.70
14604;DHT22;7388;51.078;13.740;2022-07-22T02:00:37;24.10;45.40
14604;DHT22;7388;51.078;13.740;2022-07-22T02:03:03;24.10;45.60
14604;DHT22;7388;51.078;13.740;2022-07-22T02:05:29;24.00;45.40
14604;DHT22;7388;51.078;13.740;2022-07-22T02:08:07;24.00;45.40
14604;DHT22;7388;51.078;13.740;2022-07-22T02:10:34;24.00;45.40
14604;DHT22;7388;51.078;13.740;2022-07-22T02:13:00;23.90;45.60
14604;DHT22;7388;51.078;13.740;2022-07-22T02:15:27;23.90;45.60
14604;DHT22;7388;51.078;13.740;2022-07-22T02:17:54;23.90;45.60
14604;DHT22;7388;51.078;13.740;2022-07-22T02:20:21;23.90;45.30
14604;DHT22;7388;51.078;13.740;2022-07-22T02:22:47;23.90;45.40
14604;DHT22;7388;51.078;13.740;2022-07-22T02:25:13;23.80;45.40
14604;DHT22;7388;51.078;13.740;2022-07-22T02:27:40;23.80;45.10
14604;DHT22;7388;51.078;13.740;2022-07-22T02:30:07;23.80;45.20
14604;DHT22;7388;51.078;13.740;2022-07-22T02:32:33;23.80;45.40
14604;DHT22;7388;51.078;13.740;2022-07-22T02:34:59;23.70;45.40
14604;DHT22;7388;51.078;13.740;2022-07-22T02:37:26;23.70;45.40
14604;DHT22;7388;51.078;13.740;2022-07-22T02:39:52;23.70;45.50
14604;DHT22;7388;51.078;13.740;2022-07-22T02:42:17;23.70;45.50
14604;DHT22;7388;51.078;13.740;2022-07-22T02:44:43;23.70;45.60
14604;DHT22;7388;51.078;13.740;2022-07-22T02:47:09;23.60;45.70
14604;DHT22;7388;51.078;13.740;2022-07-22T02:49:35;23.60;45.60
14604;DHT22;7388;51.078;13.740;2022-07-22T02:52:00;23.60;45.70
14604;DHT22;7388;51.078;13.740;2022-07-22T02:54:26;23.60;45.70
14604;DHT22;7388;51.078;13.740;2022-07-22T02:56:52;23.60;45.90
14604;DHT22;7388;51.078;13.740;2022-07-22T02:59:18;23.60;45.60
14604;DHT22;7388;51.078;13.740;2022-07-22T03:01:44;23.50;45.80
14604;DHT22;7388;51.078;13.740;2022-07-22T03:04:09;23.60;45.90
14604;DHT22;7388;51.078;13.740;2022-07-22T03:06:35;23.50;46.00
14604;DHT22;7388;51.078;13.740;2022-07-22T03:09:01;23.50;46.00
14604;DHT22;7388;51.078;13.740;2022-07-22T03:11:27;23.50;46.10
14604;DHT22;7388;51.078;13.740;2022-07-22T03:13:52;23.50;46.10
14604;DHT22;7388;51.078;13.740;2022-07-22T03:16:18;23.50;46.10
14604;DHT22;7388;51.078;13.740;2022-07-22T03:18:44;23.50;45.80
14604;DHT22;7388;51.078;13.740;2022-07-22T03:21:10;23.50;46.00
14604;DHT22;7388;51.078;13.740;2022-07-22T03:23:35;23.40;46.00
14604;DHT22;7388;51.078;13.740;2022-07-22T03:26:01;23.40;46.00
14604;DHT22;7388;51.078;13.740;2022-07-22T03:28:27;23.40;46.20
14604;DHT22;7388;51.078;13.740;2022-07-22T03:30:53;23.30;46.20
14604;DHT22;7388;51.078;13.740;2022-07-22T03:33:19;23.30;46.40
14604;DHT22;7388;51.078;13.740;2022-07-22T03:35:45;23.40;46.30
14604;DHT22;7388;51.078;13.740;2022-07-22T03:38:11;23.30;46.50
14604;DHT22;7388;51.078;13.740;2022-07-22T03:40:37;23.30;46.50
14604;DHT22;7388;51.078;13.740;2022-07-22T03:43:02;23.30;46.50
14604;DHT22;7388;51.078;13.740;2022-07-22T03:45:28;23.40;46.40
14604;DHT22;7388;51.078;13.740;2022-07-22T03:47:54;23.40;47.20
14604;DHT22;7388;51.078;13.740;2022-07-22T03:50:24;23.40;46.80
14604;DHT22;7388;51.078;13.740;2022-07-22T03:52:50;23.40;47.20
14604;DHT22;7388;51.078;13.740;2022-07-22T03:55:15;23.50;46.50
14604;DHT22;7388;51.078;13.740;2022-07-22T03:57:41;23.50;46.60
14604;DHT22;7388;51.078;13.740;2022-07-22T04:00:07;23.50;46.80
14604;DHT22;7388;51.078;13.740;2022-07-22T04:02:33;23.40;46.60
14604;DHT22;7388;51.078;13.740;2022-07-22T04:04:59;23.40;46.80
14604;DHT22;7388;51.078;13.740;2022-07-22T04:07:25;23.50;46.70
14604;DHT22;7388;51.078;13.740;2022-07-22T04:09:51;23.50;46.70
14604;DHT22;7388;51.078;13.740;2022-07-22T04:12:16;23.50;46.70
14604;DHT22;7388;51.078;13.740;2022-07-22T04:14:42;23.50;46.70
14604;DHT22;7388;51.078;13.740;2022-07-22T04:17:08;23.60;46.70
14604;DHT22;7388;51.078;13.740;2022-07-22T04:19:34;23.60;46.70
14604;DHT22;7388;51.078;13.740;2022-07-22T04:22:00;23.60;46.90
14604;DHT22;7388;51.078;13.740;2022-07-22T04:24:26;23.60;47.10
14604;DHT22;7388;51.078;13.740;2022-07-22T04:26:51;23.70;46.90
14604;DHT22;7388;51.078;13.740;2022-07-22T04:29:17;23.70;47.10
14604;DHT22;7388;51.078;13.740;2022-07-22T04:31:43;23.80;46.80
14604;DHT22;7388;51.078;13.740;2022-07-22T04:34:09;23.80;46.70
14604;DHT22;7388;51.078;13.740;2022-07-22T04:36:34;23.90;46.70
14604;DHT22;7388;51.078;13.740;2022-07-22T04:39:00;23.90;46.70
14604;DHT22;7388;51.078;13.740;2022-07-22T04:41:26;24.00;46.20
14604;DHT22;7388;51.078;13.740;2022-07-22T04:43:52;24.10;46.50
14604;DHT22;7388;51.078;13.740;2022-07-22T04:46:17;24.20;46.40
14604;DHT22;7388;51.078;13.740;2022-07-22T04:48:43;24.30;46.50
14604;DHT22;7388;51.078;13.740;2022-07-22T04:51:09;24.30;46.50
14604;DHT22;7388;51.078;13.740;2022-07-22T04:53:35;24.40;46.90
14604;DHT22;7388;51.078;13.740;2022-07-22T04:56:01;24.40;46.60
14604;DHT22;7388;51.078;13.740;2022-07-22T04:58:26;24.40;46.60
14604;DHT22;7388;51.078;13.740;2022-07-22T05:00:52;24.40;46.40
14604;DHT22;7388;51.078;13.740;2022-07-22T05:03:18;24.40;46.50
14604;DHT22;7388;51.078;13.740;2022-07-22T05:05:44;24.40;46.40
14604;DHT22;7388;51.078;13.740;2022-07-22T05:08:11;24.50;46.20
14604;DHT22;7388;51.078;13.740;2022-07-22T05:10:37;24.60;46.00
14604;DHT22;7388;51.078;13.740;2022-07-22T05:13:03;24.60;45.80
14604;DHT22;7388;51.078;13.740;2022-07-22T05:15:28;24.70;45.90
14604;DHT22;7388;51.078;13.740;2022-07-22T05:17:54;24.80;45.70
14604;DHT22;7388;51.078;13.740;2022-07-22T05:20:20;24.90;45.60
14604;DHT22;7388;51.078;13.740;2022-07-22T05:22:46;24.90;45.60
14604;DHT22;7388;51.078;13.740;2022-07-22T05:25:11;25.10;45.30
14604;DHT22;7388;51.078;13.740;2022-07-22T05:27:37;25.10;44.80
14604;DHT22;7388;51.078;13.740;2022-07-22T05:30:04;25.10;44.60
14604;DHT22;7388;51.078;13.740;2022-07-22T05:32:29;25.20;44.30
14604;DHT22;7388;51.078;13.740;2022-07-22T05:34:55;25.20;44.10
14604;DHT22;7388;51.078;13.740;2022-07-22T05:37:21;25.30;44.00
14604;DHT22;7388;51.078;13.740;2022-07-22T05:39:47;25.40;43.90
14604;DHT22;7388;51.078;13.740;2022-07-22T05:42:12;25.40;43.50
14604;DHT22;7388;51.078;13.740;2022-07-22T05:44:38;25.50;43.40
14604;DHT22;7388;51.078;13.740;2022-07-22T05:47:04;25.50;43.40
14604;DHT22;7388;51.078;13.740;2022-07-22T05:49:30;25.60;43.10
14604;DHT22;7388;51.078;13.740;2022-07-22T05:51:55;25.80;43.00
14604;DHT22;7388;51.078;13.740;2022-07-22T05:54:26;25.80;41.70
14604;DHT22;7388;51.078;13.740;2022-07-22T05:56:51;25.90;42.20
14604;DHT22;7388;51.078;13.740;2022-07-22T05:59:17;26.00;42.80
14604;DHT22;7388;51.078;13.740;2022-07-22T06:01:43;26.00;42.60
14604;DHT22;7388;51.078;13.740;2022-07-22T06:04:09;26.10;42.60
14604;DHT22;7388;51.078;13.740;2022-07-22T06:06:34;26.20;42.70
14604;DHT22;7388;51.078;13.740;2022-07-22T06:09:00;26.30;42.70
14604;DHT22;7388;51.078;13.740;2022-07-22T06:11:26;26.40;42.30
14604;DHT22;7388;51.078;13.740;2022-07-22T06:13:52;26.40;41.70
14604;DHT22;7388;51.078;13.740;2022-07-22T06:16:18;26.50;41.50
14604;DHT22;7388;51.078;13.740;2022-07-22T06:18:44;26.50;41.50
14604;DHT22;7388;51.078;13.740;2022-07-22T06:21:10;26.50;41.40
14604;DHT22;7388;51.078;13.740;2022-07-22T06:23:36;26.60;41.30
14604;DHT22;7388;51.078;13.740;2022-07-22T06:26:01;26.70;41.20
14604;DHT22;7388;51.078;13.740;2022-07-22T06:28:27;26.80;41.50
14604;DHT22;7388;51.078;13.740;2022-07-22T06:30:53;26.80;41.60
14604;DHT22;7388;51.078;13.740;2022-07-22T06:33:19;27.00;41.70
14604;DHT22;7388;51.078;13.740;2022-07-22T06:35:44;27.10;41.30
14604;DHT22;7388;51.078;13.740;2022-07-22T06:38:10;27.10;41.20
14604;DHT22;7388;51.078;13.740;2022-07-22T06:40:36;27.20;40.90
14604;DHT22;7388;51.078;13.740;2022-07-22T06:43:02;27.20;40.70
14604;DHT22;7388;51.078;13.740;2022-07-22T06:45:29;27.30;40.50
14604;DHT22;7388;51.078;13.740;2022-07-22T06:47:55;27.30;40.70
14604;DHT22;7388;51.078;13.740;2022-07-22T06:50:21;27.40;40.40
14604;DHT22;7388;51.078;13.740;2022-07-22T06:52:46;27.50;40.10
14604;DHT22;7388;51.078;13.740;2022-07-22T06:55:14;27.60;39.70
14604;DHT22;7388;51.078;13.740;2022-07-22T06:57:40;27.50;39.50
14604;DHT22;7388;51.078;13.740;2022-07-22T07:00:07;27.60;39.60
14604;DHT22;7388;51.078;13.740;2022-07-22T07:02:34;27.60;39.60
14604;DHT22;7388;51.078;13.740;2022-07-22T07:05:00;27.70;39.30
14604;DHT22;7388;51.078;13.740;2022-07-22T07:07:26;27.70;39.10
14604;DHT22;7388;51.078;13.740;2022-07-22T07:09:51;27.80;38.90
14604;DHT22;7388;51.078;13.740;2022-07-22T07:12:17;27.80;38.70
14604;DHT22;7388;51.078;13.740;2022-07-22T07:14:43;27.80;38.50
14604;DHT22;7388;51.078;13.740;2022-07-22T07:17:09;27.90;38.50
14604;DHT22;7388;51.078;13.740;2022-07-22T07:19:34;27.90;38.90
14604;DHT22;7388;51.078;13.740;2022-07-22T07:22:00;28.00;39.10
14604;DHT22;7388;51.078;13.740;2022-07-22T07:24:26;28.00;38.90
14604;DHT22;7388;51.078;13.740;2022-07-22T07:26:52;28.10;39.30
14604;DHT22;7388;51.078;13.740;2022-07-22T07:29:17;28.30;39.60
14604;DHT22;7388;51.078;13.740;2022-07-22T07:31:43;28.30;39.00
14604;DHT22;7388;51.078;13.740;2022-07-22T07:34:09;28.40;38.40
14604;DHT22;7388;51.078;13.740;2022-07-22T07:36:35;28.50;38.70
14604;DHT22;7388;51.078;13.740;2022-07-22T07:39:00;28.60;38.30
14604;DHT22;7388;51.078;13.740;2022-07-22T07:41:26;28.60;38.30
14604;DHT22;7388;51.078;13.740;2022-07-22T07:43:52;28.70;38.10
14604;DHT22;7388;51.078;13.740;2022-07-22T07:46:18;28.80;38.10
14604;DHT22;7388;51.078;13.740;2022-07-22T07:48:43;28.80;38.30
14604;DHT22;7388;51.078;13.740;2022-07-22T07:51:09;28.90;38.20
14604;DHT22;7388;51.078;13.740;2022-07-22T07:53:35;29.00;37.50
14604;DHT22;7388;51.078;13.740;2022-07-22T07:56:01;29.00;38.20
14604;DHT22;7388;51.078;13.740;2022-07-22T07:58:27;29.00;38.30
14604;DHT22;7388;51.078;13.740;2022-07-22T08:00:53;29.10;37.10
14604;DHT22;7388;51.078;13.740;2022-07-22T08:03:27;29.10;37.70
14604;DHT22;7388;51.078;13.740;2022-07-22T08:05:53;29.20;37.90
14604;DHT22;7388;51.078;13.740;2022-07-22T08:08:19;29.30;37.10
14604;DHT22;7388;51.078;13.740;2022-07-22T08:10:45;29.20;36.90
14604;DHT22;7388;51.078;13.740;2022-07-22T08:13:11;29.30;37.30
14604;DHT22;7388;51.078;13.740;2022-07-22T08:15:37;29.30;37.30
14604;DHT22;7388;51.078;13.740;2022-07-22T08:18:03;29.30;36.90
14604;DHT22;7388;51.078;13.740;2022-07-22T08:20:29;29.30;36.80
14604;DHT22;7388;51.078;13.740;2022-07-22T08:22:56;29.40;37.20
14604;DHT22;7388;51.078;13.740;2022-07-22T08:25:22;29.50;37.20
14604;DHT22;7388;51.078;13.740;2022-07-22T08:27:48;29.60;36.40
14604;DHT22;7388;51.078;13.740;2022-07-22T08:30:15;29.80;36.90
14604;DHT22;7388;51.078;13.740;2022-07-22T08:32:41;29.90;35.80
14604;DHT22;7388;51.078;13.740;2022-07-22T08:35:08;30.00;36.40
14604;DHT22;7388;51.078;13.740;2022-07-22T08:37:34;30.20;36.40
14604;DHT22;7388;51.078;13.740;2022-07-22T08:40:00;30.30;36.20
14604;DHT22;7388;51.078;13.740;2022-07-22T08:42:26;30.40;35.90
14604;DHT22;7388;51.078;13.740;2022-07-22T08:44:53;30.40;36.20
14604;DHT22;7388;51.078;13.740;2022-07-22T08:47:23;30.50;35.90
14604;DHT22;7388;51.078;13.740;2022-07-22T08:49:49;30.40;35.70
14604;DHT22;7388;51.078;13.740;2022-07-22T08:52:15;30.30;36.00
14604;DHT22;7388;51.078;13.740;2022-07-22T08:54:42;30.30;36.30
14604;DHT22;7388;51.078;13.740;2022-07-22T08:57:08;30.30;36.20
14604;DHT22;7388;51.078;13.740;2022-07-22T08:59:33;30.40;35.70
14604;DHT22;7388;51.078;13.740;2022-07-22T09:02:13;30.50;35.00
14604;DHT22;7388;51.078;13.740;2022-07-22T09:05:00;30.60;34.70
14604;DHT22;7388;51.078;13.740;2022-07-22T09:07:31;30.70;35.20
14604;DHT22;7388;51.078;13.740;2022-07-22T09:09:59;31.00;34.80
14604;DHT22;7388;51.078;13.740;2022-07-22T09:12:26;31.10;34.40
14604;DHT22;7388;51.078;13.740;2022-07-22T09:14:59;31.20;34.40
14604;DHT22;7388;51.078;13.740;2022-07-22T09:17:32;31.30;33.80
14604;DHT22;7388;51.078;13.740;2022-07-22T09:20:03;31.40;33.40
14604;DHT22;7388;51.078;13.740;2022-07-22T09:22:39;31.40;34.10
14604;DHT22;7388;51.078;13.740;2022-07-22T09:25:33;31.50;34.00
14604;DHT22;7388;51.078;13.740;2022-07-22T09:30:33;31.60;33.40
14604;DHT22;7388;51.078;13.740;2022-07-22T09:32:59;31.70;31.90
14604;DHT22;7388;51.078;13.740;2022-07-22T09:35:26;31.70;32.30
14604;DHT22;7388;51.078;13.740;2022-07-22T09:38:01;31.80;32.60
14604;DHT22;7388;51.078;13.740;2022-07-22T09:40:30;31.90;33.00
14604;DHT22;7388;51.078;13.740;2022-07-22T09:43:03;31.90;32.80
14604;DHT22;7388;51.078;13.740;2022-07-22T09:45:31;32.00;33.10
14604;DHT22;7388;51.078;13.740;2022-07-22T09:47:59;32.00;33.50
14604;DHT22;7388;51.078;13.740;2022-07-22T09:50:27;32.00;33.10
14604;DHT22;7388;51.078;13.740;2022-07-22T09:52:56;32.00;32.20
14604;DHT22;7388;51.078;13.740;2022-07-22T09:55:24;32.10;32.50
14604;DHT22;7388;51.078;13.740;2022-07-22T09:57:51;32.20;30.70
14604;DHT22;7388;51.078;13.740;2022-07-22T10:00:19;32.10;30.80
14604;DHT22;7388;51.078;13.740;2022-07-22T10:02:51;32.10;31.00
14604;DHT22;7388;51.078;13.740;2022-07-22T10:05:24;32.20;31.20
14604;DHT22;7388;51.078;13.740;2022-07-22T10:07:51;32.30;31.20
14604;DHT22;7388;51.078;13.740;2022-07-22T10:10:19;32.50;30.00
14604;DHT22;7388;51.078;13.740;2022-07-22T10:12:49;32.50;30.50
14604;DHT22;7388;51.078;13.740;2022-07-22T10:15:15;32.50;29.40
14604;DHT22;7388;51.078;13.740;2022-07-22T10:17:43;32.50;29.70
14604;DHT22;7388;51.078;13.740;2022-07-22T10:20:10;32.50;29.90
14604;DHT22;7388;51.078;13.740;2022-07-22T10:25:10;32.70;29.30
14604;DHT22;7388;51.078;13.740;2022-07-22T10:30:28;32.80;28.50
14604;DHT22;7388;51.078;13.740;2022-07-22T10:33:09;32.70;29.00
14604;DHT22;7388;51.078;13.740;2022-07-22T10:35:59;32.50;28.80
14604;DHT22;7388;51.078;13.740;2022-07-22T10:38:26;32.40;28.80
14604;DHT22;7388;51.078;13.740;2022-07-22T10:41:04;32.40;29.40
14604;DHT22;7388;51.078;13.740;2022-07-22T10:43:32;32.50;29.10
14604;DHT22;7388;51.078;13.740;2022-07-22T10:46:10;32.60;29.70
14604;DHT22;7388;51.078;13.740;2022-07-22T10:51:13;32.50;29.40
14604;DHT22;7388;51.078;13.740;2022-07-22T10:53:55;32.50;29.60
14604;DHT22;7388;51.078;13.740;2022-07-22T10:56:28;32.50;29.30
14604;DHT22;7388;51.078;13.740;2022-07-22T10:59:11;32.70;30.00
14604;DHT22;7388;51.078;13.740;2022-07-22T11:01:39;32.80;29.90
14604;DHT22;7388;51.078;13.740;2022-07-22T11:04:43;33.00;30.00
14604;DHT22;7388;51.078;13.740;2022-07-22T11:07:02;33.20;29.90
14604;DHT22;7388;51.078;13.740;2022-07-22T11:09:34;33.40;29.90
14604;DHT22;7388;51.078;13.740;2022-07-22T11:12:00;33.50;29.00
14604;DHT22;7388;51.078;13.740;2022-07-22T11:14:33;33.60;28.90
14604;DHT22;7388;51.078;13.740;2022-07-22T11:17:04;33.70;29.10
14604;DHT22;7388;51.078;13.740;2022-07-22T11:19:31;33.80;29.00
14604;DHT22;7388;51.078;13.740;2022-07-22T11:22:12;33.80;28.10
14604;DHT22;7388;51.078;13.740;2022-07-22T11:24:40;33.80;27.90
14604;DHT22;7388;51.078;13.740;2022-07-22T11:27:15;33.90;28.70
14604;DHT22;7388;51.078;13.740;2022-07-22T11:29:41;34.00;28.80
14604;DHT22;7388;51.078;13.740;2022-07-22T11:32:13;34.10;28.70
14604;DHT22;7388;51.078;13.740;2022-07-22T11:34:41;34.20;28.20
14604;DHT22;7388;51.078;13.740;2022-07-22T11:37:17;34.20;27.70
14604;DHT22;7388;51.078;13.740;2022-07-22T11:39:43;34.30;27.60
14604;DHT22;7388;51.078;13.740;2022-07-22T11:42:09;34.30;27.50
14604;DHT22;7388;51.078;13.740;2022-07-22T11:44:37;34.40;27.60
14604;DHT22;7388;51.078;13.740;2022-07-22T11:47:04;34.50;26.60
14604;DHT22;7388;51.078;13.740;2022-07-22T11:49:33;34.50;26.50
14604;DHT22;7388;51.078;13.740;2022-07-22T11:52:00;34.50;26.90
14604;DHT22;7388;51.078;13.740;2022-07-22T11:54:26;34.60;26.90
14604;DHT22;7388;51.078;13.740;2022-07-22T11:56:53;34.60;26.90
14604;DHT22;7388;51.078;13.740;2022-07-22T11:59:19;34.60;27.10
14604;DHT22;7388;51.078;13.740;2022-07-22T12:01:46;34.60;26.90
14604;DHT22;7388;51.078;13.740;2022-07-22T12:04:24;34.60;26.90
14604;DHT22;7388;51.078;13.740;2022-07-22T12:06:51;34.60;25.80
14604;DHT22;7388;51.078;13.740;2022-07-22T12:11:47;34.70;26.10
14604;DHT22;7388;51.078;13.740;2022-07-22T12:14:18;34.80;26.50
14604;DHT22;7388;51.078;13.740;2022-07-22T12:16:54;34.90;26.80
14604;DHT22;7388;51.078;13.740;2022-07-22T12:19:21;35.00;27.10
14604;DHT22;7388;51.078;13.740;2022-07-22T12:22:03;35.10;26.50
14604;DHT22;7388;51.078;13.740;2022-07-22T12:27:00;35.30;26.00
14604;DHT22;7388;51.078;13.740;2022-07-22T12:29:30;35.30;26.00
14604;DHT22;7388;51.078;13.740;2022-07-22T12:32:03;35.30;26.30
14604;DHT22;7388;51.078;13.740;2022-07-22T12:42:24;35.50;25.70
14604;DHT22;7388;51.078;13.740;2022-07-22T12:44:52;35.50;25.30
14604;DHT22;7388;51.078;13.740;2022-07-22T12:50:31;35.70;25.00
14604;DHT22;7388;51.078;13.740;2022-07-22T12:53:08;35.70;25.20
14604;DHT22;7388;51.078;13.740;2022-07-22T12:55:40;35.80;24.60
14604;DHT22;7388;51.078;13.740;2022-07-22T12:58:08;35.80;24.40
14604;DHT22;7388;51.078;13.740;2022-07-22T13:00:43;35.90;24.30
14604;DHT22;7388;51.078;13.740;2022-07-22T13:03:09;35.90;24.60
14604;DHT22;7388;51.078;13.740;2022-07-22T13:05:39;36.00;25.50
14604;DHT22;7388;51.078;13.740;2022-07-22T13:08:14;36.20;24.80
14604;DHT22;7388;51.078;13.740;2022-07-22T13:10:40;36.10;24.40
14604;DHT22;7388;51.078;13.740;2022-07-22T13:13:06;36.20;24.60
14604;DHT22;7388;51.078;13.740;2022-07-22T13:15:32;36.20;24.00
14604;DHT22;7388;51.078;13.740;2022-07-22T13:17:58;36.20;24.00
14604;DHT22;7388;51.078;13.740;2022-07-22T13:20:24;36.20;24.40
14604;DHT22;7388;51.078;13.740;2022-07-22T13:22:49;36.20;24.60
14604;DHT22;7388;51.078;13.740;2022-07-22T13:25:15;36.30;24.80
14604;DHT22;7388;51.078;13.740;2022-07-22T13:27:41;36.50;24.50
14604;DHT22;7388;51.078;13.740;2022-07-22T13:30:07;36.50;23.30
14604;DHT22;7388;51.078;13.740;2022-07-22T13:32:33;36.50;23.70
14604;DHT22;7388;51.078;13.740;2022-07-22T13:34:59;36.50;24.00
14604;DHT22;7388;51.078;13.740;2022-07-22T13:37:25;36.50;23.50
14604;DHT22;7388;51.078;13.740;2022-07-22T13:39:51;36.50;23.90
14604;DHT22;7388;51.078;13.740;2022-07-22T13:42:17;36.50;23.60
14604;DHT22;7388;51.078;13.740;2022-07-22T13:44:47;36.50;23.60
14604;DHT22;7388;51.078;13.740;2022-07-22T13:47:14;36.50;23.70
14604;DHT22;7388;51.078;13.740;2022-07-22T13:49:40;36.50;23.60
14604;DHT22;7388;51.078;13.740;2022-07-22T13:52:06;36.50;24.10
14604;DHT22;7388;51.078;13.740;2022-07-22T13:54:33;36.50;23.30
14604;DHT22;7388;51.078;13.740;2022-07-22T13:57:00;36.50;23.50
14604;DHT22;7388;51.078;13.740;2022-07-22T13:59:26;36.60;23.50
14604;DHT22;7388;51.078;13.740;2022-07-22T14:01:53;36.50;22.90
14604;DHT22;7388;51.078;13.740;2022-07-22T14:04:19;36.50;23.50
14604;DHT22;7388;51.078;13.740;2022-07-22T14:06:44;36.50;23.70
14604;DHT22;7388;51.078;13.740;2022-07-22T14:09:10;36.60;23.80
14604;DHT22;7388;51.078;13.740;2022-07-22T14:11:36;36.70;23.30
14604;DHT22;7388;51.078;13.740;2022-07-22T14:14:02;36.60;23.00
14604;DHT22;7388;51.078;13.740;2022-07-22T14:16:27;36.60;23.00
14604;DHT22;7388;51.078;13.740;2022-07-22T14:19:04;36.70;23.30
14604;DHT22;7388;51.078;13.740;2022-07-22T14:21:30;36.70;22.90
14604;DHT22;7388;51.078;13.740;2022-07-22T14:23:56;36.70;22.90
14604;DHT22;7388;51.078;13.740;2022-07-22T14:26:22;36.70;22.00
14604;DHT22;7388;51.078;13.740;2022-07-22T14:28:48;36.60;22.40
14604;DHT22;7388;51.078;13.740;2022-07-22T14:31:14;36.60;23.20
14604;DHT22;7388;51.078;13.740;2022-07-22T14:33:39;36.80;23.10
14604;DHT22;7388;51.078;13.740;2022-07-22T14:36:05;36.80;23.00
14604;DHT22;7388;51.078;13.740;2022-07-22T14:38:31;36.90;22.30
14604;DHT22;7388;51.078;13.740;2022-07-22T14:40:57;36.80;21.90
14604;DHT22;7388;51.078;13.740;2022-07-22T14:43:23;36.80;22.30
14604;DHT22;7388;51.078;13.740;2022-07-22T14:45:49;36.80;23.00
14604;DHT22;7388;51.078;13.740;2022-07-22T14:48:15;36.80;22.70
14604;DHT22;7388;51.078;13.740;2022-07-22T14:50:41;36.90;22.30
14604;DHT22;7388;51.078;13.740;2022-07-22T14:53:06;36.80;22.50
14604;DHT22;7388;51.078;13.740;2022-07-22T14:55:32;36.70;22.40
14604;DHT22;7388;51.078;13.740;2022-07-22T14:57:58;36.60;22.50
14604;DHT22;7388;51.078;13.740;2022-07-22T15:00:24;36.60;22.60
14604;DHT22;7388;51.078;13.740;2022-07-22T15:02:50;36.60;22.70
14604;DHT22;7388;51.078;13.740;2022-07-22T15:05:15;36.60;22.60
14604;DHT22;7388;51.078;13.740;2022-07-22T15:07:41;36.40;21.80
14604;DHT22;7388;51.078;13.740;2022-07-22T15:10:07;36.40;22.30
14604;DHT22;7388;51.078;13.740;2022-07-22T15:12:33;36.40;22.80
14604;DHT22;7388;51.078;13.740;2022-07-22T15:14:59;36.40;22.70
14604;DHT22;7388;51.078;13.740;2022-07-22T15:17:25;36.40;22.80
14604;DHT22;7388;51.078;13.740;2022-07-22T15:19:51;36.50;22.40
14604;DHT22;7388;51.078;13.740;2022-07-22T15:22:17;36.40;22.40
14604;DHT22;7388;51.078;13.740;2022-07-22T15:24:43;36.40;22.20
14604;DHT22;7388;51.078;13.740;2022-07-22T15:27:09;36.40;22.40
14604;DHT22;7388;51.078;13.740;2022-07-22T15:29:34;36.50;22.50
14604;DHT22;7388;51.078;13.740;2022-07-22T15:32:00;36.40;22.50
14604;DHT22;7388;51.078;13.740;2022-07-22T15:34:31;36.50;22.20
14604;DHT22;7388;51.078;13.740;2022-07-22T15:37:00;36.50;22.20
14604;DHT22;7388;51.078;13.740;2022-07-22T15:39:26;36.40;22.30
14604;DHT22;7388;51.078;13.740;2022-07-22T15:41:51;36.40;22.30
14604;DHT22;7388;51.078;13.740;2022-07-22T15:44:17;36.50;22.60
14604;DHT22;7388;51.078;13.740;2022-07-22T15:46:43;36.50;22.20
14604;DHT22;7388;51.078;13.740;2022-07-22T15:49:09;36.50;22.40
14604;DHT22;7388;51.078;13.740;2022-07-22T15:51:37;36.40;22.60
14604;DHT22;7388;51.078;13.740;2022-07-22T15:54:03;36.30;22.40
14604;DHT22;7388;51.078;13.740;2022-07-22T15:56:29;36.20;22.50